Liestal, Switzerland
Current Conditions -  °F | °C
As of 9:30 PM on Tuesday 21 Oct 2014 (Local Time) from LFSB Reporting Station
Scattered Clouds Scattered Clouds  
Wind Chill: 50°   Ceiling: Unl
Heat Index: 50°   Visibility: 6mi
Dew Point: 45°   Wind: 14mph
Humidity: 82%   Direction: 270°W
Pressure: 29.97"   Gusts: NA
Location:  47.49°N, 7.73°E
Report Text: LFSB 211930Z 27012KT 9999 SCT043 SCT053 10/07 Q1015 BECMG27015G25KT 9999 NSW
Loading
Personal Weather Stations






























Interactive Weather Map
Tropical Storm Tracking
New forecast layout! Learn more

10-Day Weather Forecast

Advertisements
Track Severe Weather on mobile